sensor_id;sensor_type;location;lat;lon;timestamp;pressure;altitude;pressure_sealevel;temperature;humidity
63395;BME280;49531;-34.520;150.798;2022-10-16T00:01:21;101016.50;;;19.40;55.95
63395;BME280;49531;-34.520;150.798;2022-10-16T00:03:49;101013.06;;;19.44;55.55
63395;BME280;49531;-34.520;150.798;2022-10-16T00:06:18;101013.97;;;19.50;55.20
63395;BME280;49531;-34.520;150.798;2022-10-16T00:08:47;101010.22;;;19.51;55.17
63395;BME280;49531;-34.520;150.798;2022-10-16T00:11:21;101008.66;;;19.55;55.32
63395;BME280;49531;-34.520;150.798;2022-10-16T00:13:50;101006.53;;;19.57;54.67
63395;BME280;49531;-34.520;150.798;2022-10-16T00:16:19;101006.00;;;19.60;54.60
63395;BME280;49531;-34.520;150.798;2022-10-16T00:18:46;101000.91;;;19.63;54.68
63395;BME280;49531;-34.520;150.798;2022-10-16T00:21:16;101003.97;;;19.67;54.74
63395;BME280;49531;-34.520;150.798;2022-10-16T00:23:44;100991.56;;;19.71;54.57
63395;BME280;49531;-34.520;150.798;2022-10-16T00:26:15;100994.84;;;19.73;54.42
63395;BME280;49531;-34.520;150.798;2022-10-16T00:28:45;100982.44;;;19.77;54.39
63395;BME280;49531;-34.520;150.798;2022-10-16T00:31:12;100983.00;;;19.79;54.31
63395;BME280;49531;-34.520;150.798;2022-10-16T00:33:40;100992.84;;;19.85;54.27
63395;BME280;49531;-34.520;150.798;2022-10-16T00:36:09;100987.75;;;19.89;53.33
63395;BME280;49531;-34.520;150.798;2022-10-16T00:38:37;100992.13;;;19.90;53.75
63395;BME280;49531;-34.520;150.798;2022-10-16T00:41:06;100990.22;;;19.90;53.70
63395;BME280;49531;-34.520;150.798;2022-10-16T00:43:45;100981.03;;;19.91;53.50
63395;BME280;49531;-34.520;150.798;2022-10-16T00:46:21;100978.88;;;19.93;53.54
63395;BME280;49531;-34.520;150.798;2022-10-16T00:48:57;100975.66;;;19.96;53.50
63395;BME280;49531;-34.520;150.798;2022-10-16T00:51:34;100969.19;;;19.97;53.40
63395;BME280;49531;-34.520;150.798;2022-10-16T00:54:03;100965.69;;;20.02;53.19
63395;BME280;49531;-34.520;150.798;2022-10-16T00:56:32;100970.28;;;20.02;53.56
63395;BME280;49531;-34.520;150.798;2022-10-16T00:59:03;100970.34;;;20.07;53.58
63395;BME280;49531;-34.520;150.798;2022-10-16T01:01:33;100959.00;;;20.10;51.94
63395;BME280;49531;-34.520;150.798;2022-10-16T01:04:00;100962.53;;;20.10;52.09
63395;BME280;49531;-34.520;150.798;2022-10-16T01:06:54;100966.06;;;20.11;51.96
63395;BME280;49531;-34.520;150.798;2022-10-16T01:09:37;100960.16;;;20.14;51.99
63395;BME280;49531;-34.520;150.798;2022-10-16T01:12:32;100962.53;;;20.10;50.54
63395;BME280;49531;-34.520;150.798;2022-10-16T01:15:10;100955.16;;;20.06;50.29
63395;BME280;49531;-34.520;150.798;2022-10-16T01:17:55;100958.88;;;19.99;50.38
63395;BME280;49531;-34.520;150.798;2022-10-16T01:20:31;100955.91;;;20.01;50.37
63395;BME280;49531;-34.520;150.798;2022-10-16T01:23:29;100951.78;;;19.93;49.34
63395;BME280;49531;-34.520;150.798;2022-10-16T01:26:30;100954.56;;;19.98;50.38
63395;BME280;49531;-34.520;150.798;2022-10-16T01:29:20;100947.53;;;20.03;51.27
63395;BME280;49531;-34.520;150.798;2022-10-16T01:31:57;100937.25;;;20.05;51.67
63395;BME280;49531;-34.520;150.798;2022-10-16T01:34:33;100940.03;;;20.10;52.04
63395;BME280;49531;-34.520;150.798;2022-10-16T01:37:09;100949.88;;;20.16;52.01
63395;BME280;49531;-34.520;150.798;2022-10-16T01:39:40;100952.00;;;20.14;50.70
63395;BME280;49531;-34.520;150.798;2022-10-16T01:42:21;100948.22;;;20.15;50.48
63395;BME280;49531;-34.520;150.798;2022-10-16T01:44:51;100953.41;;;20.16;50.91
63395;BME280;49531;-34.520;150.798;2022-10-16T01:47:23;100946.59;;;20.14;49.36
63395;BME280;49531;-34.520;150.798;2022-10-16T01:49:53;100945.53;;;20.15;50.13
63395;BME280;49531;-34.520;150.798;2022-10-16T01:52:23;100946.59;;;20.14;50.00
63395;BME280;49531;-34.520;150.798;2022-10-16T01:54:54;100950.69;;;20.16;50.38
63395;BME280;49531;-34.520;150.798;2022-10-16T01:57:23;100936.06;;;20.17;50.06
63395;BME280;49531;-34.520;150.798;2022-10-16T01:59:56;100938.78;;;20.17;50.93
63395;BME280;49531;-34.520;150.798;2022-10-16T02:02:27;100944.53;;;20.21;50.52
63395;BME280;49531;-34.520;150.798;2022-10-16T02:05:09;100946.16;;;20.22;50.80
63395;BME280;49531;-34.520;150.798;2022-10-16T02:07:37;100946.41;;;20.20;49.26
63395;BME280;49531;-34.520;150.798;2022-10-16T02:10:04;100947.16;;;20.16;49.28
63395;BME280;49531;-34.520;150.798;2022-10-16T02:12:34;100944.44;;;20.16;49.63
63395;BME280;49531;-34.520;150.798;2022-10-16T02:15:06;100941.75;;;20.16;49.80
63395;BME280;49531;-34.520;150.798;2022-10-16T02:17:33;100935.19;;;20.12;49.99
63395;BME280;49531;-34.520;150.798;2022-10-16T02:20:01;100942.56;;;20.16;50.65
63395;BME280;49531;-34.520;150.798;2022-10-16T02:22:35;100946.41;;;20.20;51.07
63395;BME280;49531;-34.520;150.798;2022-10-16T02:25:10;100945.34;;;20.21;51.62
63395;BME280;49531;-34.520;150.798;2022-10-16T02:28:00;100929.31;;;20.20;51.96
63395;BME280;49531;-34.520;150.798;2022-10-16T02:30:41;100932.59;;;20.22;52.31
63395;BME280;49531;-34.520;150.798;2022-10-16T02:33:10;100933.16;;;20.24;52.88
63395;BME280;49531;-34.520;150.798;2022-10-16T02:35:40;100931.28;;;20.24;52.93
63395;BME280;49531;-34.520;150.798;2022-10-16T02:38:09;100940.41;;;20.18;53.02
63395;BME280;49531;-34.520;150.798;2022-10-16T02:40:37;100939.03;;;20.16;52.69
63395;BME280;49531;-34.520;150.798;2022-10-16T02:43:05;100931.78;;;20.21;53.11
63395;BME280;49531;-34.520;150.798;2022-10-16T02:45:33;100926.66;;;20.25;53.14
63395;BME280;49531;-34.520;150.798;2022-10-16T02:48:00;100929.44;;;20.30;53.47
63395;BME280;49531;-34.520;150.798;2022-10-16T02:50:28;100927.28;;;20.32;53.41
63395;BME280;49531;-34.520;150.798;2022-10-16T02:52:55;100924.06;;;20.35;53.69
63395;BME280;49531;-34.520;150.798;2022-10-16T02:55:22;100928.44;;;20.36;53.67
63395;BME280;49531;-34.520;150.798;2022-10-16T02:57:49;100917.09;;;20.39;53.60
63395;BME280;49531;-34.520;150.798;2022-10-16T03:00:17;100915.75;;;20.42;53.93
63395;BME280;49531;-34.520;150.798;2022-10-16T03:02:44;100905.47;;;20.44;54.15
63395;BME280;49531;-34.520;150.798;2022-10-16T03:05:11;100910.63;;;20.45;54.03
63395;BME280;49531;-34.520;150.798;2022-10-16T03:07:38;100917.19;;;20.49;54.14
63395;BME280;49531;-34.520;150.798;2022-10-16T03:10:06;100916.94;;;20.51;54.22
63395;BME280;49531;-34.520;150.798;2022-10-16T03:12:33;100911.75;;;20.49;54.30
63395;BME280;49531;-34.520;150.798;2022-10-16T03:15:01;100917.00;;;20.56;54.44
63395;BME280;49531;-34.520;150.798;2022-10-16T03:17:28;100914.03;;;20.57;54.53
63395;BME280;49531;-34.520;150.798;2022-10-16T03:19:55;100912.69;;;20.60;54.75
63395;BME280;49531;-34.520;150.798;2022-10-16T03:22:22;100909.72;;;20.61;54.78
63395;BME280;49531;-34.520;150.798;2022-10-16T03:24:49;100914.63;;;20.64;54.87
63395;BME280;49531;-34.520;150.798;2022-10-16T03:27:17;100909.22;;;20.64;54.97
63395;BME280;49531;-34.520;150.798;2022-10-16T03:29:44;100906.81;;;20.68;55.34
63395;BME280;49531;-34.520;150.798;2022-10-16T03:32:11;100909.28;;;20.70;55.48
63395;BME280;49531;-34.520;150.798;2022-10-16T03:34:38;100904.41;;;20.72;55.46
63395;BME280;49531;-34.520;150.798;2022-10-16T03:37:05;100896.81;;;20.74;55.35
63395;BME280;49531;-34.520;150.798;2022-10-16T03:39:32;100895.50;;;20.76;55.54
63395;BME280;49531;-34.520;150.798;2022-10-16T03:41:59;100902.56;;;20.77;56.98
63395;BME280;49531;-34.520;150.798;2022-10-16T03:44:26;100894.09;;;20.74;57.09
63395;BME280;49531;-34.520;150.798;2022-10-16T03:46:53;100895.69;;;20.70;57.18
63395;BME280;49531;-34.520;150.798;2022-10-16T03:49:20;100893.53;;;20.72;57.25
63395;BME280;49531;-34.520;150.798;2022-10-16T03:51:47;100881.63;;;20.73;57.42
63395;BME280;49531;-34.520;150.798;2022-10-16T03:54:15;100897.38;;;20.76;58.03
63395;BME280;49531;-34.520;150.798;2022-10-16T03:56:42;100895.75;;;20.75;58.45
63395;BME280;49531;-34.520;150.798;2022-10-16T03:59:09;100898.66;;;20.68;58.67
63395;BME280;49531;-34.520;150.798;2022-10-16T04:01:36;100887.50;;;20.64;58.78
63395;BME280;49531;-34.520;150.798;2022-10-16T04:04:03;100891.28;;;20.63;59.17
63395;BME280;49531;-34.520;150.798;2022-10-16T04:06:30;100885.31;;;20.61;59.26
63395;BME280;49531;-34.520;150.798;2022-10-16T04:08:57;100889.66;;;20.62;59.30
63395;BME280;49531;-34.520;150.798;2022-10-16T04:11:25;100882.06;;;20.64;59.51
63395;BME280;49531;-34.520;150.798;2022-10-16T04:13:52;100889.16;;;20.66;59.33
63395;BME280;49531;-34.520;150.798;2022-10-16T04:16:19;100892.88;;;20.59;59.27
63395;BME280;49531;-34.520;150.798;2022-10-16T04:18:46;100888.00;;;20.61;58.92
63395;BME280;49531;-34.520;150.798;2022-10-16T04:21:13;100877.66;;;20.58;58.77
63395;BME280;49531;-34.520;150.798;2022-10-16T04:23:41;100882.28;;;20.58;58.54
63395;BME280;49531;-34.520;150.798;2022-10-16T04:26:09;100871.72;;;20.61;58.06
63395;BME280;49531;-34.520;150.798;2022-10-16T04:28:36;100869.28;;;20.60;58.25
63395;BME280;49531;-34.520;150.798;2022-10-16T04:31:04;100875.81;;;20.64;58.32
63395;BME280;49531;-34.520;150.798;2022-10-16T04:33:32;100875.56;;;20.66;57.71
63395;BME280;49531;-34.520;150.798;2022-10-16T04:36:00;100878.53;;;20.64;57.23
63395;BME280;49531;-34.520;150.798;2022-10-16T04:38:28;100871.72;;;20.61;57.64
63395;BME280;49531;-34.520;150.798;2022-10-16T04:40:55;100879.63;;;20.63;58.00
63395;BME280;49531;-34.520;150.798;2022-10-16T04:43:22;100885.31;;;20.61;57.63
63395;BME280;49531;-34.520;150.798;2022-10-16T04:45:49;100870.59;;;20.57;57.90
63395;BME280;49531;-34.520;150.798;2022-10-16T04:48:18;100871.00;;;20.44;57.97
63395;BME280;49531;-34.520;150.798;2022-10-16T04:50:46;100877.56;;;20.48;58.20
63395;BME280;49531;-34.520;150.798;2022-10-16T04:53:13;100876.66;;;20.38;58.87
63395;BME280;49531;-34.520;150.798;2022-10-16T04:55:41;100878.31;;;20.44;59.20
63395;BME280;49531;-34.520;150.798;2022-10-16T04:58:09;100885.66;;;20.43;59.23
63395;BME280;49531;-34.520;150.798;2022-10-16T05:00:36;100885.75;;;20.53;58.68
63395;BME280;49531;-34.520;150.798;2022-10-16T05:03:04;100881.47;;;20.57;58.38
63395;BME280;49531;-34.520;150.798;2022-10-16T05:05:35;100878.78;;;20.62;58.28
63395;BME280;49531;-34.520;150.798;2022-10-16T05:08:02;100878.28;;;20.66;58.14
63395;BME280;49531;-34.520;150.798;2022-10-16T05:10:30;100886.16;;;20.67;58.11
63395;BME280;49531;-34.520;150.798;2022-10-16T05:12:58;100884.28;;;20.68;58.13
63395;BME280;49531;-34.520;150.798;2022-10-16T05:15:25;100889.19;;;20.71;58.08
63395;BME280;49531;-34.520;150.798;2022-10-16T05:17:55;100876.19;;;20.73;57.98
63395;BME280;49531;-34.520;150.798;2022-10-16T05:20:23;100875.38;;;20.72;58.00
63395;BME280;49531;-34.520;150.798;2022-10-16T05:22:50;100878.38;;;20.76;58.15
63395;BME280;49531;-34.520;150.798;2022-10-16T05:25:17;100877.56;;;20.75;57.87
63395;BME280;49531;-34.520;150.798;2022-10-16T05:27:48;100881.91;;;20.76;57.88
63395;BME280;49531;-34.520;150.798;2022-10-16T05:30:16;100892.25;;;20.79;57.95
63395;BME280;49531;-34.520;150.798;2022-10-16T05:32:50;100887.63;;;20.80;57.96
63395;BME280;49531;-34.520;150.798;2022-10-16T05:35:18;100886.53;;;20.81;57.84
63395;BME280;49531;-34.520;150.798;2022-10-16T05:37:47;100891.97;;;20.81;57.76
63395;BME280;49531;-34.520;150.798;2022-10-16T05:40:14;100887.63;;;20.80;58.01
63395;BME280;49531;-34.520;150.798;2022-10-16T05:42:42;100898.22;;;20.81;57.77
63395;BME280;49531;-34.520;150.798;2022-10-16T05:45:10;100901.75;;;20.82;57.56
63395;BME280;49531;-34.520;150.798;2022-10-16T05:47:38;100909.09;;;20.81;57.52
63395;BME280;49531;-34.520;150.798;2022-10-16T05:50:05;100899.28;;;20.80;57.40
63395;BME280;49531;-34.520;150.798;2022-10-16T05:52:33;100907.75;;;20.84;57.53
63395;BME280;49531;-34.520;150.798;2022-10-16T05:55:00;100905.53;;;20.81;57.46
63395;BME280;49531;-34.520;150.798;2022-10-16T05:57:27;100909.38;;;20.85;57.38
63395;BME280;49531;-34.520;150.798;2022-10-16T05:59:54;100909.38;;;20.85;57.43
63395;BME280;49531;-34.520;150.798;2022-10-16T06:02:22;100920.25;;;20.85;57.52
63395;BME280;49531;-34.520;150.798;2022-10-16T06:04:51;100921.88;;;20.86;57.50
63395;BME280;49531;-34.520;150.798;2022-10-16T06:07:20;100928.97;;;20.87;57.56
63395;BME280;49531;-34.520;150.798;2022-10-16T06:09:51;100918.09;;;20.87;57.61
63395;BME280;49531;-34.520;150.798;2022-10-16T06:12:19;100933.31;;;20.88;57.72
63395;BME280;49531;-34.520;150.798;2022-10-16T06:14:46;100930.59;;;20.88;57.75
63395;BME280;49531;-34.520;150.798;2022-10-16T06:17:14;100937.91;;;20.87;58.00
63395;BME280;49531;-34.520;150.798;2022-10-16T06:19:41;100927.31;;;20.86;58.15
63395;BME280;49531;-34.520;150.798;2022-10-16T06:22:08;100933.06;;;20.89;58.15
63395;BME280;49531;-34.520;150.798;2022-10-16T06:24:35;100925.97;;;20.88;58.07
63395;BME280;49531;-34.520;150.798;2022-10-16T06:27:04;100936.84;;;20.88;58.11
63395;BME280;49531;-34.520;150.798;2022-10-16T06:29:31;100941.44;;;20.88;58.11
63395;BME280;49531;-34.520;150.798;2022-10-16T06:31:58;100949.59;;;20.88;58.04
63395;BME280;49531;-34.520;150.798;2022-10-16T06:34:25;100958.31;;;20.90;58.12
63395;BME280;49531;-34.520;150.798;2022-10-16T06:36:52;100955.59;;;20.90;58.15
63395;BME280;49531;-34.520;150.798;2022-10-16T06:39:19;100955.59;;;20.90;58.07
63395;BME280;49531;-34.520;150.798;2022-10-16T06:41:46;100955.59;;;20.90;57.95
63395;BME280;49531;-34.520;150.798;2022-10-16T06:44:13;100957.22;;;20.91;57.84
63395;BME280;49531;-34.520;150.798;2022-10-16T06:46:40;100961.84;;;20.90;57.96
63395;BME280;49531;-34.520;150.798;2022-10-16T06:49:07;100957.22;;;20.91;58.05
63395;BME280;49531;-34.520;150.798;2022-10-16T06:51:35;100955.22;;;20.76;58.57
63395;BME280;49531;-34.520;150.798;2022-10-16T06:54:07;100951.50;;;20.60;58.39
63395;BME280;49531;-34.520;150.798;2022-10-16T06:56:34;100952.41;;;20.44;58.45
63395;BME280;49531;-34.520;150.798;2022-10-16T06:59:02;100958.34;;;20.41;58.62
63395;BME280;49531;-34.520;150.798;2022-10-16T07:01:29;100956.97;;;20.39;58.86
63395;BME280;49531;-34.520;150.798;2022-10-16T07:03:57;100959.34;;;20.35;59.49
63395;BME280;49531;-34.520;150.798;2022-10-16T07:06:25;100968.66;;;20.39;59.98
63395;BME280;49531;-34.520;150.798;2022-10-16T07:08:53;100962.88;;;20.36;60.59
63395;BME280;49531;-34.520;150.798;2022-10-16T07:11:22;100973.41;;;20.32;60.89
63395;BME280;49531;-34.520;150.798;2022-10-16T07:13:50;100978.78;;;20.27;60.35
63395;BME280;49531;-34.520;150.798;2022-10-16T07:16:20;100981.75;;;20.25;60.03
63395;BME280;49531;-34.520;150.798;2022-10-16T07:18:48;100986.53;;;20.40;59.59
63395;BME280;49531;-34.520;150.798;2022-10-16T07:21:18;100978.53;;;20.50;59.26
63395;BME280;49531;-34.520;150.798;2022-10-16T07:23:51;100987.28;;;20.57;58.92
63395;BME280;49531;-34.520;150.798;2022-10-16T07:26:18;100982.44;;;20.59;58.98
63395;BME280;49531;-34.520;150.798;2022-10-16T07:28:45;100978.66;;;20.60;58.98
63395;BME280;49531;-34.520;150.798;2022-10-16T07:31:16;100981.69;;;20.64;58.79
63395;BME280;49531;-34.520;150.798;2022-10-16T07:33:45;100987.09;;;20.64;58.78
63395;BME280;49531;-34.520;150.798;2022-10-16T07:36:15;100989.81;;;20.64;58.77
63395;BME280;49531;-34.520;150.798;2022-10-16T07:38:45;100988.50;;;20.67;58.67
63395;BME280;49531;-34.520;150.798;2022-10-16T07:41:14;100984.13;;;20.66;58.70
63395;BME280;49531;-34.520;150.798;2022-10-16T07:43:46;100998.84;;;20.70;58.68
63395;BME280;49531;-34.520;150.798;2022-10-16T07:46:14;100993.09;;;20.66;58.65
63395;BME280;49531;-34.520;150.798;2022-10-16T07:48:43;101005.91;;;20.71;58.61
63395;BME280;49531;-34.520;150.798;2022-10-16T07:51:15;101009.44;;;20.71;58.75
63395;BME280;49531;-34.520;150.798;2022-10-16T07:53:43;101010.25;;;20.72;58.55
63395;BME280;49531;-34.520;150.798;2022-10-16T07:56:10;101013.81;;;20.72;58.40
63395;BME280;49531;-34.520;150.798;2022-10-16T07:58:38;101011.09;;;20.72;58.48
63395;BME280;49531;-34.520;150.798;2022-10-16T08:01:07;101011.91;;;20.73;58.39
63395;BME280;49531;-34.520;150.798;2022-10-16T08:03:35;101011.91;;;20.73;58.34
63395;BME280;49531;-34.520;150.798;2022-10-16T08:06:03;101011.91;;;20.73;58.47
63395;BME280;49531;-34.520;150.798;2022-10-16T08:08:30;101014.06;;;20.71;58.44
63395;BME280;49531;-34.520;150.798;2022-10-16T08:10:58;101018.16;;;20.73;58.29
63395;BME280;49531;-34.520;150.798;2022-10-16T08:13:25;101020.06;;;20.73;58.22
63395;BME280;49531;-34.520;150.798;2022-10-16T08:15:54;101020.06;;;20.73;58.41
63395;BME280;49531;-34.520;150.798;2022-10-16T08:18:22;101029.00;;;20.73;58.35
63395;BME280;49531;-34.520;150.798;2022-10-16T08:20:56;101040.13;;;20.72;58.29
63395;BME280;49531;-34.520;150.798;2022-10-16T08:23:24;101039.06;;;20.73;58.33
63395;BME280;49531;-34.520;150.798;2022-10-16T08:25:53;101043.91;;;20.71;58.28
63395;BME280;49531;-34.520;150.798;2022-10-16T08:28:21;101045.56;;;20.72;58.25
63395;BME280;49531;-34.520;150.798;2022-10-16T08:30:48;101050.97;;;20.72;58.32
63395;BME280;49531;-34.520;150.798;2022-10-16T08:33:15;101054.78;;;20.71;58.26
63395;BME280;49531;-34.520;150.798;2022-10-16T08:35:49;101055.84;;;20.70;58.27
63395;BME280;49531;-34.520;150.798;2022-10-16T08:38:16;101074.59;;;20.71;58.21
63395;BME280;49531;-34.520;150.798;2022-10-16T08:40:43;101070.22;;;20.70;58.36
63395;BME280;49531;-34.520;150.798;2022-10-16T08:43:27;101077.56;;;20.70;58.45
63395;BME280;49531;-34.520;150.798;2022-10-16T08:46:30;101077.81;;;20.68;58.30
63395;BME280;49531;-34.520;150.798;2022-10-16T08:49:03;101088.66;;;20.68;58.34
63395;BME280;49531;-34.520;150.798;2022-10-16T08:51:33;101087.84;;;20.68;58.04
63395;BME280;49531;-34.520;150.798;2022-10-16T08:56:45;101089.16;;;20.65;58.26
63395;BME280;49531;-34.520;150.798;2022-10-16T08:59:14;101094.84;;;20.63;58.21
63395;BME280;49531;-34.520;150.798;2022-10-16T09:01:46;101095.91;;;20.62;58.13
63395;BME280;49531;-34.520;150.798;2022-10-16T09:04:40;101098.88;;;20.61;58.09
63395;BME280;49531;-34.520;150.798;2022-10-16T09:07:29;101097.25;;;20.60;58.07
63395;BME280;49531;-34.520;150.798;2022-10-16T09:10:18;101107.28;;;20.59;57.99
63395;BME280;49531;-34.520;150.798;2022-10-16T09:13:01;101102.91;;;20.58;57.95
63395;BME280;49531;-34.520;150.798;2022-10-16T09:15:52;101106.13;;;20.55;57.94
63395;BME280;49531;-34.520;150.798;2022-10-16T09:18:31;101102.59;;;20.55;57.75
63395;BME280;49531;-34.520;150.798;2022-10-16T09:21:25;101104.50;;;20.54;57.59
63395;BME280;49531;-34.520;150.798;2022-10-16T09:23:57;101110.16;;;20.53;57.63
63395;BME280;49531;-34.520;150.798;2022-10-16T09:26:24;101107.13;;;20.49;57.49
63395;BME280;49531;-34.520;150.798;2022-10-16T09:28:52;101125.88;;;20.51;57.62
63395;BME280;49531;-34.520;150.798;2022-10-16T09:31:22;101118.81;;;20.50;57.42
63395;BME280;49531;-34.520;150.798;2022-10-16T09:33:54;101128.84;;;20.49;57.37
63395;BME280;49531;-34.520;150.798;2022-10-16T09:36:23;101129.91;;;20.48;57.50
63395;BME280;49531;-34.520;150.798;2022-10-16T09:39:04;101132.63;;;20.48;57.44
63395;BME280;49531;-34.520;150.798;2022-10-16T09:41:35;101134.78;;;20.46;57.34
63395;BME280;49531;-34.520;150.798;2022-10-16T09:44:06;101145.63;;;20.46;57.39
63395;BME280;49531;-34.520;150.798;2022-10-16T09:46:43;101138.56;;;20.45;57.33
63395;BME280;49531;-34.520;150.798;2022-10-16T09:49:30;101140.94;;;20.42;57.36
63395;BME280;49531;-34.520;150.798;2022-10-16T09:52:12;101153.44;;;20.43;57.39
63395;BME280;49531;-34.520;150.798;2022-10-16T09:54:51;101164.53;;;20.41;57.31
63395;BME280;49531;-34.520;150.798;2022-10-16T09:57:19;101168.31;;;20.40;57.25
63395;BME280;49531;-34.520;150.798;2022-10-16T09:59:49;101167.50;;;20.40;57.32
63395;BME280;49531;-34.520;150.798;2022-10-16T10:02:19;101165.88;;;20.39;57.36
63395;BME280;49531;-34.520;150.798;2022-10-16T10:04:51;101173.66;;;20.35;57.29
63395;BME280;49531;-34.520;150.798;2022-10-16T10:07:30;101178.03;;;20.36;57.31
63395;BME280;49531;-34.520;150.798;2022-10-16T10:10:04;101174.75;;;20.34;57.26
63395;BME280;49531;-34.520;150.798;2022-10-16T10:12:32;101174.75;;;20.34;57.31
63395;BME280;49531;-34.520;150.798;2022-10-16T10:15:11;101168.72;;;20.32;57.24
63395;BME280;49531;-34.520;150.798;2022-10-16T10:17:47;101171.69;;;20.30;57.21
63395;BME280;49531;-34.520;150.798;2022-10-16T10:20:25;101169.22;;;20.29;57.19
63395;BME280;49531;-34.520;150.798;2022-10-16T10:22:53;101167.59;;;20.28;57.15
63395;BME280;49531;-34.520;150.798;2022-10-16T10:25:39;101173.84;;;20.28;57.34
63395;BME280;49531;-34.520;150.798;2022-10-16T10:31:31;101171.63;;;20.25;57.00
63395;BME280;49531;-34.520;150.798;2022-10-16T10:34:19;101176.22;;;20.25;57.17
63395;BME280;49531;-34.520;150.798;2022-10-16T10:37:01;101172.94;;;20.23;57.04
63395;BME280;49531;-34.520;150.798;2022-10-16T10:39:39;101173.66;;;20.18;56.97
63395;BME280;49531;-34.520;150.798;2022-10-16T10:42:30;101186.97;;;20.20;56.92
63395;BME280;49531;-34.520;150.798;2022-10-16T10:45:16;101178.50;;;20.16;56.92
63395;BME280;49531;-34.520;150.798;2022-10-16T10:47:58;101174.97;;;20.16;57.16
63395;BME280;49531;-34.520;150.798;2022-10-16T10:53:35;101182.53;;;20.14;57.01
63395;BME280;49531;-34.520;150.798;2022-10-16T10:56:21;101178.66;;;20.10;57.09
63395;BME280;49531;-34.520;150.798;2022-10-16T10:59:21;101179.50;;;20.10;57.09
63395;BME280;49531;-34.520;150.798;2022-10-16T11:05:13;101185.41;;;20.07;57.07
63395;BME280;49531;-34.520;150.798;2022-10-16T11:07:50;101178.59;;;20.05;57.18
63395;BME280;49531;-34.520;150.798;2022-10-16T11:10:27;101185.06;;;20.04;57.04
63395;BME280;49531;-34.520;150.798;2022-10-16T11:13:09;101180.97;;;20.01;56.97
63395;BME280;49531;-34.520;150.798;2022-10-16T11:15:39;101183.91;;;19.99;56.96
63395;BME280;49531;-34.520;150.798;2022-10-16T11:18:19;101186.63;;;19.99;57.03
63395;BME280;49531;-34.520;150.798;2022-10-16T11:20:52;101191.50;;;19.97;56.99
63395;BME280;49531;-34.520;150.798;2022-10-16T11:26:14;101192.00;;;19.94;57.11
63395;BME280;49531;-34.520;150.798;2022-10-16T11:28:49;101202.00;;;19.94;57.08
63395;BME280;49531;-34.520;150.798;2022-10-16T11:31:39;101197.09;;;19.91;57.18
63395;BME280;49531;-34.520;150.798;2022-10-16T11:34:26;101194.63;;;19.89;57.06
63395;BME280;49531;-34.520;150.798;2022-10-16T11:37:06;101196.75;;;19.87;57.06
63395;BME280;49531;-34.520;150.798;2022-10-16T11:39:37;101196.75;;;19.87;57.13
63395;BME280;49531;-34.520;150.798;2022-10-16T11:42:19;101195.09;;;19.86;57.19
63395;BME280;49531;-34.520;150.798;2022-10-16T11:45:08;101199.38;;;19.82;57.20
63395;BME280;49531;-34.520;150.798;2022-10-16T11:47:45;101196.91;;;19.81;57.28
63395;BME280;49531;-34.520;150.798;2022-10-16T11:50:34;101206.91;;;19.80;57.44
63395;BME280;49531;-34.520;150.798;2022-10-16T11:55:55;101208.22;;;19.78;57.49
63395;BME280;49531;-34.520;150.798;2022-10-16T11:58:39;101202.47;;;19.74;57.23
63395;BME280;49531;-34.520;150.798;2022-10-16T12:01:20;101204.34;;;19.74;57.28
63395;BME280;49531;-34.520;150.798;2022-10-16T12:04:05;101201.88;;;19.72;57.43
63395;BME280;49531;-34.520;150.798;2022-10-16T12:06:44;101204.59;;;19.72;57.33
63395;BME280;49531;-34.520;150.798;2022-10-16T12:09:24;101199.41;;;19.71;57.50
63395;BME280;49531;-34.520;150.798;2022-10-16T12:11:52;101195.88;;;19.70;57.52
63395;BME280;49531;-34.520;150.798;2022-10-16T12:17:23;101190.94;;;19.67;57.53
63395;BME280;49531;-34.520;150.798;2022-10-16T12:19:59;101183.31;;;19.64;57.47
63395;BME280;49531;-34.520;150.798;2022-10-16T12:22:30;101181.66;;;19.63;57.47
63395;BME280;49531;-34.520;150.798;2022-10-16T12:24:58;101178.13;;;19.62;57.41
63395;BME280;49531;-34.520;150.798;2022-10-16T12:27:31;101182.72;;;19.62;57.43
63395;BME280;49531;-34.520;150.798;2022-10-16T12:30:00;101189.44;;;19.59;57.60
63395;BME280;49531;-34.520;150.798;2022-10-16T12:32:32;101187.00;;;19.58;57.60
63395;BME280;49531;-34.520;150.798;2022-10-16T12:35:01;101191.59;;;19.57;57.67
63395;BME280;49531;-34.520;150.798;2022-10-16T12:37:34;101199.16;;;19.55;57.62
63395;BME280;49531;-34.520;150.798;2022-10-16T12:40:23;101191.25;;;19.54;57.66
63395;BME280;49531;-34.520;150.798;2022-10-16T12:42:51;101197.16;;;19.51;57.45
63395;BME280;49531;-34.520;150.798;2022-10-16T12:45:26;101204.22;;;19.52;57.55
63395;BME280;49531;-34.520;150.798;2022-10-16T12:47:55;101195.47;;;19.50;57.56
63395;BME280;49531;-34.520;150.798;2022-10-16T12:50:31;101196.78;;;19.47;57.82
63395;BME280;49531;-34.520;150.798;2022-10-16T12:53:01;101190.56;;;19.47;57.58
63395;BME280;49531;-34.520;150.798;2022-10-16T12:55:40;101185.63;;;19.44;57.68
63395;BME280;49531;-34.520;150.798;2022-10-16T12:58:30;101198.34;;;19.43;57.71
63395;BME280;49531;-34.520;150.798;2022-10-16T13:01:11;101195.88;;;19.42;57.78
63395;BME280;49531;-34.520;150.798;2022-10-16T13:04:04;101188.81;;;19.41;57.68
63395;BME280;49531;-34.520;150.798;2022-10-16T13:06:53;101190.94;;;19.39;57.62